Time;durP1;ratioP1;P1;durP2;ratioP2;P2;SDS_P1;SDS_P2;PMS_P1;PMS_P2;Temp;Humidity;BMP_temperature;BMP_pressure;BME280_temperature;BME280_humidity;BME280_pressure;Samples;Min_cycle;Max_cycle;Signal;HPM_P1;HPM_P2
2023/12/29 00:00:04;;;;;;;13.02;2.63;;;;;;;;;;5005964;28;20113;-62
2023/12/29 00:02:30;;;;;;;14.77;2.60;;;;;;;;;;5006930;28;20095;-62
2023/12/29 00:04:56;;;;;;;15.50;3.00;;;;;;;;;;5005129;28;20029;-63
2023/12/29 00:07:22;;;;;;;17.95;2.55;;;;;;;;;;5005772;28;20042;-63
2023/12/29 00:09:49;;;;;;;13.30;2.38;;;;;;;;;;5006294;28;20026;-63
2023/12/29 00:12:15;;;;;;;14.85;2.70;;;;;;;;;;5006489;28;20054;-63
2023/12/29 00:14:41;;;;;;;18.45;3.42;;;;;;;;;;5004945;28;20064;-63
2023/12/29 00:17:07;;;;;;;14.98;2.75;;;;;;;;;;5006357;28;20030;-63
2023/12/29 00:19:33;;;;;;;13.38;3.17;;;;;;;;;;5005408;28;20022;-63
2023/12/29 00:22:02;;;;;;;13.25;2.95;;;;;;;;;;5006253;28;20037;-63
2023/12/29 00:24:28;;;;;;;20.33;3.47;;;;;;;;;;5005829;28;20042;-62
2023/12/29 00:26:54;;;;;;;19.20;4.38;;;;;;;;;;5007408;28;20046;-62
2023/12/29 00:29:20;;;;;;;14.52;2.65;;;;;;;;;;5005583;28;20037;-63
2023/12/29 00:31:46;;;;;;;19.35;3.58;;;;;;;;;;5006173;28;20037;-63
2023/12/29 00:34:12;;;;;;;15.13;3.13;;;;;;;;;;5006218;28;20038;-62
2023/12/29 00:36:38;;;;;;;17.15;2.60;;;;;;;;;;5006342;28;20026;-62
2023/12/29 00:39:04;;;;;;;14.50;3.45;;;;;;;;;;5008886;28;20740;-63
2023/12/29 00:41:30;;;;;;;15.68;2.38;;;;;;;;;;5009815;28;20469;-62
2023/12/29 00:43:57;;;;;;;14.52;2.97;;;;;;;;;;5010404;28;20480;-62
2023/12/29 00:46:23;;;;;;;17.02;2.92;;;;;;;;;;5008636;28;20037;-62
2023/12/29 00:48:49;;;;;;;18.52;3.75;;;;;;;;;;5007299;28;20163;-62
2023/12/29 00:51:15;;;;;;;16.48;2.88;;;;;;;;;;5009827;28;20041;-62
2023/12/29 00:53:41;;;;;;;15.77;3.03;;;;;;;;;;5009824;28;20040;-62
2023/12/29 00:56:11;;;;;;;18.67;3.15;;;;;;;;;;5009343;28;20040;-62
2023/12/29 00:58:37;;;;;;;17.73;3.05;;;;;;;;;;5009855;28;20047;-62
2023/12/29 01:01:03;;;;;;;13.82;2.90;;;;;;;;;;5008587;28;20067;-63
2023/12/29 01:03:29;;;;;;;17.25;2.95;;;;;;;;;;5009533;28;20033;-63
2023/12/29 01:05:55;;;;;;;12.07;2.33;;;;;;;;;;5009320;28;20561;-63
2023/12/29 01:08:21;;;;;;;9.52;2.58;;;;;;;;;;5009473;28;20572;-63
2023/12/29 01:10:47;;;;;;;12.18;2.83;;;;;;;;;;5010118;28;20484;-63
2023/12/29 01:13:13;;;;;;;16.83;3.53;;;;;;;;;;5008051;28;20765;-63
2023/12/29 01:15:40;;;;;;;14.38;2.63;;;;;;;;;;5009170;28;20468;-63
2023/12/29 01:18:06;;;;;;;15.45;2.83;;;;;;;;;;5009271;28;20040;-63
2023/12/29 01:20:32;;;;;;;15.07;2.70;;;;;;;;;;5008942;28;20057;-63
2023/12/29 01:22:58;;;;;;;17.73;3.78;;;;;;;;;;5009024;28;20171;-63
2023/12/29 01:25:24;;;;;;;15.07;3.08;;;;;;;;;;5009035;28;20061;-63
2023/12/29 01:27:50;;;;;;;22.40;4.15;;;;;;;;;;5008838;28;20444;-63
2023/12/29 01:30:16;;;;;;;16.63;3.05;;;;;;;;;;5009001;28;20881;-63
2023/12/29 01:32:42;;;;;;;24.52;3.53;;;;;;;;;;5006580;28;20071;-63
2023/12/29 01:35:09;;;;;;;16.52;3.20;;;;;;;;;;5008641;28;20044;-63
2023/12/29 01:37:35;;;;;;;23.85;4.05;;;;;;;;;;5007309;28;20397;-63
2023/12/29 01:40:01;;;;;;;15.68;3.30;;;;;;;;;;5009685;28;20688;-63
2023/12/29 01:42:27;;;;;;;17.52;3.95;;;;;;;;;;5006491;28;20025;-63
2023/12/29 01:44:54;;;;;;;16.92;3.47;;;;;;;;;;5008724;28;20037;-63
2023/12/29 01:47:21;;;;;;;17.85;4.18;;;;;;;;;;5009520;28;20104;-63
2023/12/29 01:49:47;;;;;;;13.45;2.67;;;;;;;;;;5008292;28;20033;-63
2023/12/29 01:52:13;;;;;;;15.40;2.78;;;;;;;;;;5009072;28;20030;-63
2023/12/29 01:54:42;;;;;;;15.90;2.00;;;;;;;;;;5008640;28;20390;-63
2023/12/29 01:57:08;;;;;;;14.60;1.90;;;;;;;;;;5008501;28;20041;-63
2023/12/29 01:59:35;;;;;;;12.38;2.10;;;;;;;;;;5008562;28;20044;-63
2023/12/29 02:02:01;;;;;;;9.73;1.95;;;;;;;;;;5007454;28;20033;-62
2023/12/29 02:04:28;;;;;;;9.85;1.67;;;;;;;;;;5008411;28;20034;-62
2023/12/29 02:06:55;;;;;;;7.35;1.55;;;;;;;;;;5007546;28;20749;-62
2023/12/29 02:09:21;;;;;;;5.65;1.25;;;;;;;;;;5008735;28;20183;-62
2023/12/29 02:11:47;;;;;;;9.55;1.63;;;;;;;;;;5007616;28;20156;-62
2023/12/29 02:14:14;;;;;;;8.20;1.55;;;;;;;;;;5008503;28;20033;-62
2023/12/29 02:16:40;;;;;;;6.63;1.45;;;;;;;;;;5009294;28;20096;-63
2023/12/29 02:19:25;;;;;;;11.18;1.48;;;;;;;;;;5008716;28;20072;-63
2023/12/29 02:21:51;;;;;;;10.55;1.98;;;;;;;;;;5008093;28;20033;-63
2023/12/29 02:24:17;;;;;;;10.60;1.75;;;;;;;;;;5008323;28;20044;-63
2023/12/29 02:26:47;;;;;;;8.27;1.50;;;;;;;;;;5007703;28;20043;-63
2023/12/29 02:29:15;;;;;;;12.77;2.85;;;;;;;;;;5008426;28;20464;-63
2023/12/29 02:31:43;;;;;;;12.07;2.58;;;;;;;;;;5007314;28;20030;-63
2023/12/29 02:34:11;;;;;;;13.00;2.53;;;;;;;;;;5008134;28;20037;-63
2023/12/29 02:36:42;;;;;;;12.35;2.90;;;;;;;;;;5007707;28;20033;-63
2023/12/29 02:39:08;;;;;;;14.38;2.15;;;;;;;;;;5007383;28;20044;-63
2023/12/29 02:41:34;;;;;;;9.60;2.03;;;;;;;;;;5002985;28;20037;-62
2023/12/29 02:44:00;;;;;;;17.45;3.22;;;;;;;;;;5000461;28;20034;-62
2023/12/29 02:46:26;;;;;;;12.93;2.60;;;;;;;;;;5002004;28;20029;-62
2023/12/29 02:48:52;;;;;;;12.40;3.15;;;;;;;;;;5000908;28;20040;-63
2023/12/29 02:51:18;;;;;;;12.35;2.83;;;;;;;;;;5000578;28;20393;-63
2023/12/29 02:53:44;;;;;;;15.82;3.03;;;;;;;;;;5000794;28;20552;-63
2023/12/29 02:56:10;;;;;;;18.33;4.30;;;;;;;;;;5000285;28;20593;-63
2023/12/29 02:58:36;;;;;;;17.08;2.67;;;;;;;;;;5002313;28;21477;-63
2023/12/29 03:01:03;;;;;;;18.05;3.45;;;;;;;;;;5005165;28;20048;-63
2023/12/29 03:03:29;;;;;;;19.90;3.13;;;;;;;;;;5004067;28;21089;-63
2023/12/29 03:05:55;;;;;;;20.95;3.92;;;;;;;;;;5004516;28;20112;-63
2023/12/29 03:08:21;;;;;;;23.00;4.43;;;;;;;;;;5004032;28;20492;-63
2023/12/29 03:10:47;;;;;;;22.67;3.95;;;;;;;;;;5004284;28;20037;-63
2023/12/29 03:13:13;;;;;;;20.42;3.30;;;;;;;;;;5004427;28;20037;-63
2023/12/29 03:15:39;;;;;;;27.00;3.95;;;;;;;;;;5004930;28;20030;-63
2023/12/29 03:18:05;;;;;;;19.00;3.83;;;;;;;;;;5004353;28;20030;-63
2023/12/29 03:20:31;;;;;;;23.58;5.45;;;;;;;;;;5004258;28;20026;-63
2023/12/29 03:22:57;;;;;;;22.90;4.95;;;;;;;;;;5004291;28;20048;-63
2023/12/29 03:25:23;;;;;;;31.80;5.68;;;;;;;;;;5004637;28;20532;-63
2023/12/29 03:27:49;;;;;;;25.80;4.53;;;;;;;;;;5006809;28;20936;-63
2023/12/29 03:30:15;;;;;;;27.48;4.78;;;;;;;;;;5004432;28;20076;-63
2023/12/29 03:32:41;;;;;;;25.25;5.72;;;;;;;;;;5004390;28;20017;-63
2023/12/29 03:35:07;;;;;;;27.90;4.68;;;;;;;;;;5003737;28;20116;-63
2023/12/29 03:37:33;;;;;;;16.00;3.15;;;;;;;;;;5003498;28;20033;-63
2023/12/29 03:39:59;;;;;;;20.15;4.55;;;;;;;;;;5004078;28;20034;-63
2023/12/29 03:42:25;;;;;;;27.10;5.28;;;;;;;;;;5005701;28;20064;-63
2023/12/29 03:44:52;;;;;;;20.75;4.93;;;;;;;;;;5003969;28;20029;-63
2023/12/29 03:47:18;;;;;;;21.23;4.38;;;;;;;;;;5004356;28;20205;-63
2023/12/29 03:49:44;;;;;;;25.52;5.32;;;;;;;;;;5004960;28;20033;-63
2023/12/29 03:52:10;;;;;;;23.80;4.10;;;;;;;;;;5004688;28;20041;-63
2023/12/29 03:54:36;;;;;;;25.40;4.55;;;;;;;;;;5004586;28;20080;-63
2023/12/29 03:57:02;;;;;;;29.52;5.35;;;;;;;;;;5003250;28;20033;-63
2023/12/29 03:59:28;;;;;;;24.25;4.90;;;;;;;;;;5002884;28;20026;-63
2023/12/29 04:01:54;;;;;;;29.70;5.22;;;;;;;;;;4998685;28;20405;-63
2023/12/29 04:04:20;;;;;;;26.65;4.68;;;;;;;;;;5000320;28;20072;-63
2023/12/29 04:06:46;;;;;;;23.60;4.28;;;;;;;;;;5003011;28;20073;-63
2023/12/29 04:09:12;;;;;;;22.90;4.50;;;;;;;;;;5004136;28;20508;-63
2023/12/29 04:11:39;;;;;;;27.88;5.68;;;;;;;;;;5004517;28;20037;-63
2023/12/29 04:14:05;;;;;;;24.00;4.53;;;;;;;;;;5009851;28;20033;-64
2023/12/29 04:16:31;;;;;;;32.85;6.40;;;;;;;;;;5013739;28;20044;-63
2023/12/29 04:18:57;;;;;;;25.35;4.72;;;;;;;;;;5011845;28;20038;-63
2023/12/29 04:21:23;;;;;;;25.02;5.30;;;;;;;;;;5012244;28;20378;-63
2023/12/29 04:23:49;;;;;;;20.95;5.00;;;;;;;;;;5025627;28;20476;-63
2023/12/29 04:26:15;;;;;;;20.90;4.35;;;;;;;;;;5012089;28;20445;-63
2023/12/29 04:28:41;;;;;;;23.42;4.70;;;;;;;;;;5011764;28;21781;-63
2023/12/29 04:31:07;;;;;;;26.08;5.45;;;;;;;;;;5013021;28;20029;-63
2023/12/29 04:33:33;;;;;;;21.90;4.65;;;;;;;;;;5011733;28;20041;-63
2023/12/29 04:35:59;;;;;;;23.63;4.32;;;;;;;;;;5012959;28;20021;-63
2023/12/29 04:38:25;;;;;;;25.58;5.32;;;;;;;;;;5012620;28;20026;-63
2023/12/29 04:40:51;;;;;;;24.27;4.22;;;;;;;;;;5012139;28;20093;-63
2023/12/29 04:43:17;;;;;;;21.58;4.93;;;;;;;;;;5010924;28;20033;-63
2023/12/29 04:45:43;;;;;;;23.60;5.00;;;;;;;;;;5011574;28;20045;-63
2023/12/29 04:48:09;;;;;;;20.23;4.57;;;;;;;;;;5013579;28;20026;-63
2023/12/29 04:50:35;;;;;;;22.88;5.43;;;;;;;;;;5012874;28;20076;-63
2023/12/29 04:53:01;;;;;;;26.60;4.05;;;;;;;;;;5012892;28;20045;-63
2023/12/29 04:55:28;;;;;;;23.45;4.78;;;;;;;;;;5011229;28;20034;-63
2023/12/29 04:57:54;;;;;;;25.90;3.95;;;;;;;;;;5012095;28;20060;-62
2023/12/29 05:00:20;;;;;;;18.40;4.25;;;;;;;;;;5011587;28;20036;-63
2023/12/29 05:02:46;;;;;;;31.20;5.03;;;;;;;;;;5011723;28;20033;-63
2023/12/29 05:05:12;;;;;;;22.65;4.18;;;;;;;;;;5012138;28;20063;-63
2023/12/29 05:07:38;;;;;;;21.80;4.07;;;;;;;;;;5013476;28;21155;-63
2023/12/29 05:10:04;;;;;;;18.85;3.60;;;;;;;;;;5011802;28;20029;-63
2023/12/29 05:12:30;;;;;;;26.88;4.35;;;;;;;;;;5011558;28;20523;-63
2023/12/29 05:14:56;;;;;;;19.05;3.88;;;;;;;;;;5011821;28;20223;-63
2023/12/29 05:17:22;;;;;;;21.67;3.63;;;;;;;;;;5011256;28;20697;-63
2023/12/29 05:19:48;;;;;;;16.20;3.45;;;;;;;;;;5012331;28;20503;-63
2023/12/29 05:22:17;;;;;;;24.70;3.97;;;;;;;;;;5007190;28;20041;-63
2023/12/29 05:24:44;;;;;;;24.13;4.50;;;;;;;;;;5010061;28;20037;-63
2023/12/29 05:27:10;;;;;;;23.73;4.38;;;;;;;;;;5008164;28;20066;-63
2023/12/29 05:29:36;;;;;;;21.45;4.13;;;;;;;;;;5008743;28;20038;-63
2023/12/29 05:32:02;;;;;;;28.23;4.95;;;;;;;;;;5006772;28;20030;-63
2023/12/29 05:34:28;;;;;;;20.90;4.72;;;;;;;;;;5009032;28;20037;-63
2023/12/29 05:36:54;;;;;;;23.83;4.45;;;;;;;;;;5008985;28;20033;-63
2023/12/29 05:39:20;;;;;;;25.13;4.95;;;;;;;;;;5007046;28;20116;-63
2023/12/29 05:41:46;;;;;;;25.20;4.15;;;;;;;;;;5008730;28;20044;-63
2023/12/29 05:44:13;;;;;;;29.48;6.45;;;;;;;;;;5008801;28;20037;-63
2023/12/29 05:46:39;;;;;;;23.85;3.95;;;;;;;;;;5007540;28;20089;-63
2023/12/29 05:49:05;;;;;;;23.88;4.10;;;;;;;;;;5007952;28;20041;-63
2023/12/29 05:51:31;;;;;;;22.20;4.53;;;;;;;;;;5008074;28;20037;-63
2023/12/29 05:53:57;;;;;;;30.27;4.78;;;;;;;;;;5008045;28;21008;-63
2023/12/29 05:56:23;;;;;;;25.33;4.53;;;;;;;;;;5008490;28;20179;-63
2023/12/29 05:58:49;;;;;;;24.77;5.45;;;;;;;;;;5009189;28;20034;-63
2023/12/29 06:01:15;;;;;;;28.42;4.13;;;;;;;;;;5007502;28;20697;-63
2023/12/29 06:03:42;;;;;;;22.08;4.35;;;;;;;;;;5006921;28;20037;-63
2023/12/29 06:06:08;;;;;;;30.77;5.22;;;;;;;;;;5007677;28;20022;-63
2023/12/29 06:08:34;;;;;;;22.17;4.70;;;;;;;;;;5007591;28;20065;-63
2023/12/29 06:11:00;;;;;;;19.80;3.88;;;;;;;;;;5007784;28;20414;-63
2023/12/29 06:13:26;;;;;;;25.25;4.05;;;;;;;;;;5009426;28;20033;-63
2023/12/29 06:15:52;;;;;;;22.30;4.68;;;;;;;;;;5008854;28;20041;-63
2023/12/29 06:18:18;;;;;;;26.05;4.28;;;;;;;;;;5008060;28;20088;-64
2023/12/29 06:20:44;;;;;;;26.88;4.97;;;;;;;;;;5008338;28;20032;-63
2023/12/29 06:23:10;;;;;;;21.48;4.85;;;;;;;;;;5008692;28;20037;-63
2023/12/29 06:25:37;;;;;;;22.75;4.63;;;;;;;;;;5009158;28;21142;-63
2023/12/29 06:28:06;;;;;;;27.38;4.40;;;;;;;;;;5008713;28;20456;-63
2023/12/29 06:30:32;;;;;;;28.88;5.93;;;;;;;;;;5009303;28;20044;-63
2023/12/29 06:32:58;;;;;;;23.10;3.88;;;;;;;;;;5006778;28;20466;-63
2023/12/29 06:35:24;;;;;;;24.77;5.00;;;;;;;;;;5006655;28;20025;-63
2023/12/29 06:37:50;;;;;;;22.20;4.30;;;;;;;;;;5007227;28;20040;-63
2023/12/29 06:40:17;;;;;;;17.38;4.40;;;;;;;;;;5007170;28;20142;-63
2023/12/29 06:42:43;;;;;;;27.05;5.20;;;;;;;;;;5007273;28;20890;-63
2023/12/29 06:45:09;;;;;;;29.75;4.97;;;;;;;;;;5006840;28;20115;-63
2023/12/29 06:47:35;;;;;;;23.20;4.05;;;;;;;;;;5008403;28;20065;-63
2023/12/29 06:50:03;;;;;;;28.23;5.40;;;;;;;;;;5007032;28;20041;-63
2023/12/29 06:52:33;;;;;;;27.17;4.35;;;;;;;;;;5006663;28;20041;-63
2023/12/29 06:55:00;;;;;;;26.83;5.13;;;;;;;;;;5007011;28;20022;-63
2023/12/29 06:57:27;;;;;;;24.23;4.40;;;;;;;;;;5007247;28;21746;-63
2023/12/29 06:59:53;;;;;;;23.08;4.90;;;;;;;;;;5006804;28;20029;-63
2023/12/29 07:02:19;;;;;;;22.67;3.47;;;;;;;;;;5007831;28;20057;-63
2023/12/29 07:04:45;;;;;;;24.52;4.65;;;;;;;;;;5006268;28;21673;-63
2023/12/29 07:07:11;;;;;;;21.27;4.38;;;;;;;;;;5007389;28;20057;-63
2023/12/29 07:09:41;;;;;;;23.55;4.00;;;;;;;;;;5008486;28;20053;-63
2023/12/29 07:12:07;;;;;;;29.90;4.97;;;;;;;;;;5008171;28;20121;-63
2023/12/29 07:14:35;;;;;;;21.15;3.50;;;;;;;;;;5007797;28;20168;-63
2023/12/29 07:17:01;;;;;;;28.08;6.10;;;;;;;;;;5008302;28;21712;-63
2023/12/29 07:19:36;;;;;;;22.90;4.63;;;;;;;;;;5009503;28;20037;-63
2023/12/29 07:22:02;;;;;;;19.35;3.80;;;;;;;;;;5007952;28;20048;-63
2023/12/29 07:24:28;;;;;;;23.05;4.50;;;;;;;;;;5007259;28;20555;-63
2023/12/29 07:26:55;;;;;;;24.02;4.50;;;;;;;;;;5008453;28;20041;-63
2023/12/29 07:29:21;;;;;;;26.02;5.45;;;;;;;;;;5007028;28;20848;-63
2023/12/29 07:31:47;;;;;;;19.67;3.85;;;;;;;;;;5007790;28;20037;-62
2023/12/29 07:34:14;;;;;;;26.10;4.60;;;;;;;;;;5007399;28;20026;-62
2023/12/29 07:36:40;;;;;;;32.35;4.60;;;;;;;;;;5007558;28;20044;-62
2023/12/29 07:39:06;;;;;;;31.20;5.35;;;;;;;;;;5006575;28;20037;-62
2023/12/29 07:41:32;;;;;;;28.67;5.20;;;;;;;;;;5006181;28;20660;-62
2023/12/29 07:43:59;;;;;;;20.58;4.60;;;;;;;;;;5008105;28;20026;-62
2023/12/29 07:46:26;;;;;;;29.13;5.60;;;;;;;;;;5007591;28;20041;-62
2023/12/29 07:48:52;;;;;;;30.30;4.78;;;;;;;;;;5006610;28;20033;-62
2023/12/29 07:51:19;;;;;;;27.17;4.53;;;;;;;;;;5006771;28;20025;-62
2023/12/29 07:53:45;;;;;;;22.77;4.18;;;;;;;;;;5008142;28;20037;-62
2023/12/29 07:56:11;;;;;;;33.92;5.20;;;;;;;;;;5005505;28;20030;-62
2023/12/29 07:58:37;;;;;;;26.27;4.43;;;;;;;;;;5007320;28;20042;-62
2023/12/29 08:01:03;;;;;;;22.90;3.75;;;;;;;;;;5004889;28;20030;-62
2023/12/29 08:03:29;;;;;;;29.20;4.65;;;;;;;;;;5006330;28;20080;-62
2023/12/29 08:05:55;;;;;;;25.02;4.00;;;;;;;;;;5007391;28;20037;-62
2023/12/29 08:08:21;;;;;;;17.60;3.80;;;;;;;;;;5007223;28;20045;-62
2023/12/29 08:10:47;;;;;;;30.25;5.15;;;;;;;;;;5007202;28;20615;-62
2023/12/29 08:13:13;;;;;;;26.25;5.47;;;;;;;;;;5005953;28;20034;-62
2023/12/29 08:15:39;;;;;;;18.30;4.60;;;;;;;;;;5007672;28;20167;-63
2023/12/29 08:18:06;;;;;;;25.30;4.93;;;;;;;;;;5007334;28;20061;-63
2023/12/29 08:20:32;;;;;;;21.83;3.65;;;;;;;;;;5007408;28;20971;-63
2023/12/29 08:22:58;;;;;;;25.88;4.85;;;;;;;;;;5006597;28;20744;-63
2023/12/29 08:25:24;;;;;;;19.27;4.30;;;;;;;;;;5006863;28;20140;-62
2023/12/29 08:27:50;;;;;;;22.27;4.13;;;;;;;;;;5006185;28;20151;-62
2023/12/29 08:30:16;;;;;;;22.45;4.10;;;;;;;;;;5007424;28;20076;-62
2023/12/29 08:32:42;;;;;;;23.02;3.90;;;;;;;;;;5005556;28;20033;-62
2023/12/29 08:35:08;;;;;;;22.63;4.10;;;;;;;;;;5006522;28;20113;-62
2023/12/29 08:37:34;;;;;;;22.40;4.82;;;;;;;;;;5006649;28;20038;-62
2023/12/29 08:40:01;;;;;;;30.45;4.97;;;;;;;;;;5005116;28;20033;-63
2023/12/29 08:42:28;;;;;;;27.58;4.80;;;;;;;;;;5006062;28;20448;-63
2023/12/29 08:44:54;;;;;;;32.13;5.55;;;;;;;;;;5005390;28;20115;-63
2023/12/29 08:47:20;;;;;;;24.33;5.50;;;;;;;;;;5006313;28;20048;-63
2023/12/29 08:49:48;;;;;;;19.60;4.18;;;;;;;;;;5005886;28;20042;-63
2023/12/29 08:52:15;;;;;;;17.85;3.97;;;;;;;;;;5005812;28;20051;-63
2023/12/29 08:54:41;;;;;;;22.02;4.78;;;;;;;;;;5006458;28;20124;-63
2023/12/29 08:57:07;;;;;;;22.85;4.13;;;;;;;;;;5004830;28;20495;-63
2023/12/29 08:59:33;;;;;;;28.10;5.03;;;;;;;;;;5007503;28;20112;-63
2023/12/29 09:02:00;;;;;;;20.85;3.83;;;;;;;;;;5009474;28;20037;-63
2023/12/29 09:04:26;;;;;;;16.33;3.47;;;;;;;;;;5009056;28;20532;-63
2023/12/29 09:06:52;;;;;;;24.83;4.35;;;;;;;;;;5009573;28;20037;-63
2023/12/29 09:09:18;;;;;;;24.27;4.45;;;;;;;;;;5009624;28;20196;-63
2023/12/29 09:11:44;;;;;;;27.23;5.57;;;;;;;;;;5009502;28;20042;-63
2023/12/29 09:14:11;;;;;;;27.15;4.85;;;;;;;;;;5009257;28;20481;-63
2023/12/29 09:16:37;;;;;;;28.40;6.10;;;;;;;;;;5009682;28;20021;-63
2023/12/29 09:19:03;;;;;;;25.50;4.53;;;;;;;;;;5009656;28;20044;-63
2023/12/29 09:21:29;;;;;;;23.42;4.38;;;;;;;;;;5010265;28;20040;-63
2023/12/29 09:23:55;;;;;;;27.83;4.57;;;;;;;;;;5009671;28;20045;-63
2023/12/29 09:26:21;;;;;;;21.67;4.32;;;;;;;;;;5009756;28;20473;-63
2023/12/29 09:28:47;;;;;;;22.50;3.53;;;;;;;;;;5008855;28;20523;-63
2023/12/29 09:31:13;;;;;;;20.20;4.72;;;;;;;;;;5008831;28;20030;-63
2023/12/29 09:33:40;;;;;;;26.85;4.68;;;;;;;;;;5008922;28;20029;-63
2023/12/29 09:36:06;;;;;;;18.52;3.67;;;;;;;;;;5008498;28;20029;-63
2023/12/29 09:38:32;;;;;;;24.95;4.97;;;;;;;;;;5009239;28;20036;-62
2023/12/29 09:41:00;;;;;;;21.48;3.90;;;;;;;;;;5009404;28;20116;-62
2023/12/29 09:43:26;;;;;;;30.45;4.68;;;;;;;;;;5008581;28;20033;-63
2023/12/29 09:45:53;;;;;;;28.48;4.25;;;;;;;;;;5009176;28;20029;-63
2023/12/29 09:48:20;;;;;;;23.60;3.97;;;;;;;;;;5008037;28;20025;-63
2023/12/29 09:50:50;;;;;;;24.38;4.13;;;;;;;;;;5008106;28;20087;-63
2023/12/29 09:53:17;;;;;;;24.08;3.88;;;;;;;;;;5008804;28;20072;-63
2023/12/29 09:55:46;;;;;;;21.38;4.05;;;;;;;;;;5008749;28;20037;-63
2023/12/29 09:58:13;;;;;;;28.77;6.20;;;;;;;;;;5007459;28;20036;-63
2023/12/29 10:00:39;;;;;;;20.08;3.47;;;;;;;;;;5008621;28;20022;-63
2023/12/29 10:03:06;;;;;;;18.77;3.90;;;;;;;;;;5007752;28;20578;-63
2023/12/29 10:05:32;;;;;;;17.00;3.45;;;;;;;;;;5008185;28;20579;-63
2023/12/29 10:08:03;;;;;;;21.45;4.30;;;;;;;;;;5008266;28;20052;-63
2023/12/29 10:10:31;;;;;;;20.48;4.18;;;;;;;;;;5007866;28;20037;-63
2023/12/29 10:12:57;;;;;;;22.08;3.80;;;;;;;;;;5007958;28;20770;-63
2023/12/29 10:15:46;;;;;;;25.83;3.67;;;;;;;;;;5008144;28;20030;-64
2023/12/29 10:18:20;;;;;;;18.25;3.88;;;;;;;;;;5008272;28;20025;-63
2023/12/29 10:20:46;;;;;;;;;;;;;;;;;;5008894;28;20929;-63
2023/12/29 10:23:14;;;;;;;16.52;3.63;;;;;;;;;;5008096;28;20015;-63
2023/12/29 10:25:40;;;;;;;19.33;3.85;;;;;;;;;;5009186;28;20044;-63
2023/12/29 10:28:07;;;;;;;22.80;4.40;;;;;;;;;;5007323;28;20124;-63
2023/12/29 10:30:33;;;;;;;18.60;2.92;;;;;;;;;;5007610;28;20037;-63
2023/12/29 10:33:00;;;;;;;14.60;2.83;;;;;;;;;;5008674;28;20037;-63
2023/12/29 10:35:26;;;;;;;18.10;3.55;;;;;;;;;;5009079;28;20112;-63
2023/12/29 10:37:52;;;;;;;18.75;3.38;;;;;;;;;;5008703;28;20033;-63
2023/12/29 10:40:19;;;;;;;26.40;4.85;;;;;;;;;;5007449;28;20025;-63
2023/12/29 10:42:55;;;;;;;13.45;3.03;;;;;;;;;;5006336;28;20166;-63
2023/12/29 10:45:24;;;;;;;16.55;3.60;;;;;;;;;;5008177;28;20033;-63
2023/12/29 10:47:50;;;;;;;10.88;2.70;;;;;;;;;;5007094;28;20034;-63
2023/12/29 10:50:16;;;;;;;13.15;2.88;;;;;;;;;;5007551;28;20053;-63
2023/12/29 10:52:43;;;;;;;16.67;3.30;;;;;;;;;;5007577;28;20034;-63
2023/12/29 10:55:10;;;;;;;16.45;2.97;;;;;;;;;;5005405;28;20109;-63
2023/12/29 10:57:37;;;;;;;11.05;2.33;;;;;;;;;;5022845;28;20060;-63
2023/12/29 11:00:03;;;;;;;12.43;2.60;;;;;;;;;;5007940;28;20777;-63
2023/12/29 11:02:29;;;;;;;15.25;3.08;;;;;;;;;;5008215;28;20061;-63
2023/12/29 11:05:03;;;;;;;19.58;3.67;;;;;;;;;;5007973;28;20111;-63
2023/12/29 11:07:33;;;;;;;19.65;3.42;;;;;;;;;;5006324;28;20156;-63
2023/12/29 11:10:03;;;;;;;14.10;3.45;;;;;;;;;;5004571;28;20374;-63
2023/12/29 11:12:31;;;;;;;10.20;2.40;;;;;;;;;;5006333;28;20037;-63
2023/12/29 11:14:57;;;;;;;16.58;2.60;;;;;;;;;;5006964;28;20025;-63
2023/12/29 11:17:23;;;;;;;16.65;3.30;;;;;;;;;;5006548;28;20037;-63
2023/12/29 11:19:51;;;;;;;14.93;2.33;;;;;;;;;;5007184;28;20099;-63
2023/12/29 11:22:18;;;;;;;16.98;2.80;;;;;;;;;;5006459;28;20064;-63
2023/12/29 11:24:47;;;;;;;14.35;2.78;;;;;;;;;;5007224;28;20427;-63
2023/12/29 11:27:13;;;;;;;14.27;2.95;;;;;;;;;;5005727;28;20475;-63
2023/12/29 11:29:42;;;;;;;15.63;3.45;;;;;;;;;;5006443;28;20037;-63
2023/12/29 11:32:12;;;;;;;16.00;2.95;;;;;;;;;;5006211;28;20029;-63
2023/12/29 11:34:42;;;;;;;16.17;3.53;;;;;;;;;;5007059;28;20527;-63
2023/12/29 11:37:29;;;;;;;16.23;2.63;;;;;;;;;;5006854;28;20143;-63
2023/12/29 11:40:11;;;;;;;28.67;4.38;;;;;;;;;;5006056;28;20083;-63
2023/12/29 11:42:40;;;;;;;9.93;2.75;;;;;;;;;;5005009;28;20045;-63
2023/12/29 11:45:28;;;;;;;15.85;2.45;;;;;;;;;;5005096;28;20034;-63
2023/12/29 11:47:55;;;;;;;12.95;2.53;;;;;;;;;;5006812;28;20119;-63
2023/12/29 11:50:28;;;;;;;21.33;3.10;;;;;;;;;;5006419;28;20036;-63
2023/12/29 11:52:54;;;;;;;14.57;2.85;;;;;;;;;;5006732;28;20033;-63
2023/12/29 11:55:21;;;;;;;14.57;2.63;;;;;;;;;;5006606;28;20076;-63
2023/12/29 11:57:48;;;;;;;18.50;3.22;;;;;;;;;;5006018;28;20026;-63
2023/12/29 12:00:16;;;;;;;17.48;3.00;;;;;;;;;;5006339;28;20030;-63
2023/12/29 12:02:42;;;;;;;13.55;2.70;;;;;;;;;;5003935;28;20034;-63
2023/12/29 12:05:12;;;;;;;18.50;3.28;;;;;;;;;;5006322;28;20493;-63
2023/12/29 12:07:41;;;;;;;15.48;2.88;;;;;;;;;;5004786;28;20052;-63
2023/12/29 12:10:23;;;;;;;12.35;2.83;;;;;;;;;;5005910;28;20214;-63
2023/12/29 12:12:51;;;;;;;13.88;2.53;;;;;;;;;;5004177;28;20041;-63
2023/12/29 12:15:29;;;;;;;16.60;2.88;;;;;;;;;;5005038;28;20029;-63
2023/12/29 12:18:07;;;;;;;13.45;2.55;;;;;;;;;;5006208;28;20731;-63
2023/12/29 12:20:34;;;;;;;17.20;3.22;;;;;;;;;;5004630;28;20029;-63
2023/12/29 12:23:01;;;;;;;14.07;2.67;;;;;;;;;;5005647;28;20047;-63
2023/12/29 12:25:28;;;;;;;16.35;2.60;;;;;;;;;;5005783;28;20077;-63
2023/12/29 12:27:54;;;;;;;9.90;2.17;;;;;;;;;;5005266;28;20026;-63
2023/12/29 12:30:20;;;;;;;9.43;2.35;;;;;;;;;;5016892;28;20033;-63
2023/12/29 12:32:47;;;;;;;15.07;2.92;;;;;;;;;;5003168;28;20033;-63
2023/12/29 12:35:16;;;;;;;11.95;2.80;;;;;;;;;;5010216;28;20018;-63
2023/12/29 12:37:42;;;;;;;12.63;2.28;;;;;;;;;;5010193;28;20122;-63
2023/12/29 12:40:08;;;;;;;13.43;3.00;;;;;;;;;;5010141;28;20960;-63
2023/12/29 12:42:41;;;;;;;11.82;2.30;;;;;;;;;;5009872;28;20061;-63
2023/12/29 12:45:12;;;;;;;14.80;3.20;;;;;;;;;;5009723;28;21818;-63
2023/12/29 12:47:44;;;;;;;13.18;2.53;;;;;;;;;;5006792;28;20108;-63
2023/12/29 12:50:12;;;;;;;21.98;2.92;;;;;;;;;;5007860;28;20758;-63
2023/12/29 12:52:38;;;;;;;15.43;3.60;;;;;;;;;;5008139;28;20040;-63
2023/12/29 12:55:05;;;;;;;13.32;2.97;;;;;;;;;;5008543;28;20040;-63
2023/12/29 12:57:33;;;;;;;12.18;2.63;;;;;;;;;;5008105;28;20025;-63
2023/12/29 12:59:59;;;;;;;12.55;2.33;;;;;;;;;;5007606;28;20029;-63
2023/12/29 13:02:26;;;;;;;17.67;2.80;;;;;;;;;;5007995;28;20869;-63
2023/12/29 13:04:53;;;;;;;16.27;3.40;;;;;;;;;;5008719;28;20029;-63
2023/12/29 13:07:19;;;;;;;14.50;2.80;;;;;;;;;;5007918;28;20040;-63
2023/12/29 13:09:50;;;;;;;13.18;1.98;;;;;;;;;;5009030;28;20049;-63
2023/12/29 13:12:16;;;;;;;16.30;3.03;;;;;;;;;;5008772;28;20702;-63
2023/12/29 13:14:43;;;;;;;18.13;4.45;;;;;;;;;;5008936;28;20507;-63
2023/12/29 13:17:14;;;;;;;13.00;2.85;;;;;;;;;;5008435;28;20033;-63
2023/12/29 13:19:40;;;;;;;13.60;2.17;;;;;;;;;;5007914;28;20023;-63
2023/12/29 13:22:11;;;;;;;19.45;3.65;;;;;;;;;;5008510;28;20029;-63
2023/12/29 13:24:43;;;;;;;13.35;2.10;;;;;;;;;;5009274;28;20029;-63
2023/12/29 13:27:09;;;;;;;15.80;2.38;;;;;;;;;;5006372;28;20037;-63
2023/12/29 13:29:36;;;;;;;12.82;2.92;;;;;;;;;;5008979;28;21205;-63
2023/12/29 13:32:17;;;;;;;16.77;3.55;;;;;;;;;;5006428;28;20030;-63
2023/12/29 13:34:56;;;;;;;22.67;3.10;;;;;;;;;;5008270;28;20026;-63
2023/12/29 13:37:41;;;;;;;13.93;2.72;;;;;;;;;;5008546;28;20079;-63
2023/12/29 13:40:15;;;;;;;12.98;2.15;;;;;;;;;;5008741;28;20030;-63
2023/12/29 13:42:43;;;;;;;16.65;2.53;;;;;;;;;;5008652;28;20034;-63
2023/12/29 13:45:10;;;;;;;15.68;2.70;;;;;;;;;;5007183;28;20029;-63
2023/12/29 13:47:37;;;;;;;14.52;2.72;;;;;;;;;;5007772;28;20683;-63
2023/12/29 13:50:03;;;;;;;16.25;3.22;;;;;;;;;;5007323;28;20632;-63
2023/12/29 13:52:30;;;;;;;11.05;2.67;;;;;;;;;;5008190;28;20056;-63
2023/12/29 13:54:56;;;;;;;16.85;3.17;;;;;;;;;;5007180;28;20056;-63
2023/12/29 13:57:34;;;;;;;11.25;2.10;;;;;;;;;;5007922;28;20034;-63
2023/12/29 14:00:22;;;;;;;18.20;2.83;;;;;;;;;;5006811;28;20025;-63
2023/12/29 14:02:57;;;;;;;11.90;2.63;;;;;;;;;;5007768;28;20088;-63
2023/12/29 14:05:33;;;;;;;17.58;3.00;;;;;;;;;;5008852;28;20037;-63
2023/12/29 14:08:05;;;;;;;16.73;2.28;;;;;;;;;;5007917;28;20053;-63
2023/12/29 14:10:31;;;;;;;16.42;2.80;;;;;;;;;;5008876;28;20549;-63
2023/12/29 14:13:05;;;;;;;15.27;2.40;;;;;;;;;;5007179;28;20033;-63
2023/12/29 14:15:38;;;;;;;17.45;2.90;;;;;;;;;;5008765;28;20053;-63
2023/12/29 14:18:10;;;;;;;10.20;2.28;;;;;;;;;;5007658;28;20037;-63
2023/12/29 14:20:36;;;;;;;18.25;3.17;;;;;;;;;;5006601;28;20030;-63
2023/12/29 14:23:05;;;;;;;15.73;2.70;;;;;;;;;;5008321;28;20045;-63
2023/12/29 14:25:35;;;;;;;13.50;2.33;;;;;;;;;;5007784;28;20065;-63
2023/12/29 14:28:01;;;;;;;17.00;2.10;;;;;;;;;;5008238;28;20148;-63
2023/12/29 14:30:31;;;;;;;9.48;2.75;;;;;;;;;;5008666;28;20037;-63